ADDS METAR Data INFO
IDs: Format: Raw Decoded Include TAF

Data at: 1040 UTC 16 Jul 2018

KEEN 161020Z AUTO 21003KT 1/4SM FG OVC001 18/18 A3000 RMK AO2
KEEN 161013Z AUTO 00000KT 1/2SM FG OVC001 18/18 A3000 RMK AO2
KEEN 161005Z AUTO 00000KT 3/4SM BR OVC001 18/18 A3000 RMK AO2
KEEN 161003Z AUTO 00000KT 1 1/4SM BR OVC001 18/18 A3000 RMK AO2
KEEN 160956Z AUTO 00000KT 3SM BR OVC001 18/18 A3000 RMK AO2 SLP171 T01780178
KEEN 160942Z AUTO 00000KT 3SM BR OVC001 18/17 A3000 RMK AO2
KEEN 160937Z AUTO 00000KT 1 3/4SM BR OVC001 18/17 A3000 RMK AO2
KEEN 160935Z AUTO 20003KT 3/4SM BR OVC001 18/18 A3000 RMK AO2
KEEN 160919Z AUTO 00000KT 1/4SM FG OVC001 18/17 A3000 RMK AO2
KEEN 160910Z AUTO 00000KT 1/2SM FG OVC001 17/17 A2999 RMK AO2
KEEN 160856Z AUTO 00000KT 1SM BR BKN001 18/17 A2999 RMK AO2 SLP166 T01780172 50000
KEEN 160854Z AUTO 00000KT 1SM BR BKN001 18/17 A2999 RMK AO2
KEEN 160847Z AUTO 00000KT 1 1/4SM BR BKN001 17/17 A2999 RMK AO2
KEEN 160838Z AUTO 20003KT 1 3/4SM BR BKN003 17/17 A2999 RMK AO2 VIS 3/4V5 CIG 001V005
KEEN 160831Z AUTO 00000KT 1SM BR VV003 17/17 A2999 RMK AO2
KEEN 160826Z AUTO 20003KT 1/2SM FG BKN002 18/17 A2999 RMK AO2 CIG 001V005
KEEN 160818Z AUTO 00000KT 3/4SM BR VV003 18/17 A2999 RMK AO2
KEEN 160815Z AUTO 00000KT 1SM BR VV004 18/17 A2999 RMK AO2
KEEN 160806Z AUTO 00000KT 1 3/4SM BR CLR 18/17 A2999 RMK AO2
KEEN 160756Z AUTO 00000KT 5SM BR CLR 18/18 A2999 RMK AO2 SLP169 T01830183
KEEN 160656Z AUTO 00000KT 7SM CLR 19/18 A2999 RMK AO2 SLP166 T01890183
KEEN 160556Z AUTO 17003KT 5SM BR FEW080 19/18 A3000 RMK AO2 SLP168 T01890183 10272 20189 50004
KEEN 160456Z AUTO 00000KT 10SM CLR 20/19 A3001 RMK AO2 SLP171 T02000189 403500189
KEEN 160356Z AUTO 00000KT 10SM FEW095 21/19 A2999 RMK AO2 SLP167 T02060189
KEEN 160256Z AUTO 00000KT 10SM SCT060 BKN090 22/20 A2998 RMK AO2 SLP164 T02170200 51013
KEEN 160156Z AUTO 00000KT 10SM FEW060 SCT075 BKN095 23/21 A2998 RMK AO2 LTG DSNT S SLP161 T02280206
KEEN 160056Z AUTO 00000KT 10SM CLR 24/20 A2996 RMK AO2 SLP157 T02390200
KEEN 152356Z AUTO 26006KT 10SM SCT070 27/20 A2994 RMK AO2 SLP150 60000 T02720200 10350 20272 53006
KEEN 152256Z AUTO 23003KT 10SM CLR 30/21 A2993 RMK AO2 LTG DSNT SE SLP145 T03000206
KEEN 152156Z AUTO 24005KT 10SM BKN060 31/20 A2992 RMK AO2 SLP142 T03110200
KEEN 152056Z AUTO 24006KT 10SM FEW060 34/21 A2992 RMK AO2 LTG DSNT E AND SW TSE11B33E48RAE07 SLP143 P0000 60000 T03390211 56002
KEEN 152054Z AUTO 25005KT 10SM SCT060 34/21 A2993 RMK AO2 LTG DSNT E AND SW TSE11B33E48RAE07 P0000
KEEN 152039Z AUTO 00000KT 9SM VCTS FEW070 33/20 A2992 RMK AO2 LTG DSNT E TSE11B33RAE07 P0000
KEEN 152017Z AUTO 00000KT 10SM FEW060 SCT075 SCT090 30/21 A2992 RMK AO2 LTG DSNT E TSE11RAE07 P0000
KEEN 151856Z AUTO 00000KT 9SM CLR 34/18 A2993 RMK AO2 SLP145 T03440183
KEEN 151756Z AUTO 19003KT 10SM CLR 32/18 A2994 RMK AO2 SLP149 T03220183 10328 20228 58006
KEEN 151656Z AUTO 03005KT 10SM FEW055 SCT070 32/19 A2996 RMK AO2 SLP154 T03220194
KEEN 151556Z AUTO 36004KT 8SM SCT039 32/19 A2996 RMK AO2 SLP155 T03170194
KEEN 151519Z AUTO 00000KT 10SM FEW026 SCT030 BKN036 30/21 A2996 RMK AO2
KEEN 151456Z AUTO 25004KT 10SM BKN026 29/21 A2996 RMK AO2 SLP157 T02890211 56007
KEEN 151454Z AUTO 25003KT 10SM BKN026 29/21 A2996 RMK AO2
KEEN 151356Z AUTO 00000KT 10SM FEW018 28/21 A2997 RMK AO2 SLP159 T02830211
KEEN 151256Z AUTO 00000KT 10SM CLR 26/21 A2998 RMK AO2 SLP165 T02610211
KEEN 151156Z AUTO 00000KT 10SM SCT003 23/22 A2999 RMK AO2 SLP170 7//// T02280217 10228 20189 50003
KEEN 151056Z AUTO 01003KT 8SM BKN003 19/19 A3000 RMK AO2 SLP173 T01940189
KEEN 151007Z AUTO 00000KT 4SM BR BKN003 BKN100 19/18 A2999 RMK AO2
KEEN 150956Z AUTO 00000KT 7SM FEW003 BKN100 19/18 A2999 RMK AO2 SLP169 T01890183
KEEN 150930Z AUTO 00000KT 7SM SCT003 OVC100 19/18 A2999 RMK AO2
KEEN 150917Z AUTO 00000KT 7SM BKN003 OVC100 19/18 A2999 RMK AO2
KEEN 150856Z AUTO 00000KT 7SM SCT003 OVC100 19/19 A2999 RMK AO2 SLP167 T01890189 58008
KEEN 150841Z AUTO 00000KT 7SM FEW003 OVC100 19/18 A2999 RMK AO2
KEEN 150756Z AUTO 00000KT 8SM OVC110 19/18 A2999 RMK AO2 SLP170 T01940183
KEEN 150710Z AUTO 00000KT 8SM SCT013 OVC120 19/19 A3000 RMK AO2
KEEN 150656Z AUTO 00000KT 8SM BKN013 OVC110 19/19 A3001 RMK AO2 SLP174 T01940189
KEEN 150641Z AUTO 00000KT 8SM OVC013 19/19 A3001 RMK AO2
KEEN 150556Z AUTO 00000KT 8SM FEW002 BKN015 OVC120 19/19 A3001 RMK AO2 SLP175 6//// T01940189 10222 20194 56009
KEEN 150527Z AUTO 00000KT 7SM BKN017 BKN120 19/19 A3001 RMK AO2
KEEN 150456Z AUTO 00000KT 10SM FEW019 SCT120 19/19 A3002 RMK AO2 SLP178 T01940189 402720139
KEEN 150426Z AUTO 00000KT 9SM FEW021 BKN120 19/19 A3002 RMK AO2
KEEN 150356Z AUTO 00000KT 10SM BKN023 19/19 A3003 RMK AO2 SLP182 T01940189
KEEN 150311Z AUTO 00000KT 10SM BKN023 19/19 A3003 RMK AO2
KEEN 150256Z AUTO 00000KT 10SM SCT023 20/19 A3004 RMK AO2 SLP186 6//// T02000189 51007
KEEN 150218Z AUTO 00000KT 10SM BKN023 BKN095 21/19 A3004 RMK AO2
KEEN 150156Z AUTO VRB03KT 10SM FEW025 SCT050 BKN060 21/20 A3004 RMK AO2 SLP185 T02060200
KEEN 150056Z AUTO 34003KT 10SM FEW005 BKN031 OVC070 21/21 A3003 RMK AO2 RAE56 SLP182 T02110206
KEEN 150013Z AUTO VRB04KT 7SM -RA FEW008 BKN035 OVC090 22/21 A3002 RMK AO2
KEEN 150008Z AUTO 04008KT 360V100 7SM -RA FEW010 BKN029 OVC035 22/21 A3003 RMK AO2
KEEN 142356Z AUTO 00000KT 3SM RA BR OVC037 22/21 A3002 RMK AO2 RAB2258 SLP179 6//// T02220211 10272 20222 56011 PNO $
KEEN 142256Z AUTO 00000KT 10SM BKN050 OVC060 24/21 A3002 RMK AO2 SLP181 T02390206